Search for airport 
image banner adimage banner adimage banner ad
image banner ad

20CN - Ucsd Medical Center Hillcrest

Located in San Diego, United States

ICAO - 20CN, IATA -

Data provided by Airmate  

General information

Coordinates: N32°45'15" W117°9'56"
Elevation is 403 feet MSL.
 
View others Airports in California

Operational data

Special qualification required
Current time UTC:
Current local time:
Weather at : KSAN - San Diego Intl ( 3 km )
METAR: KSAN 240851Z 29003KT 10SM BKN017 BKN110 19/15 A3001 RMK AO2 SLP162 T01940150 58004
TAF: KSAN 240556Z 2406/2512 VRB04KT P6SM SCT016 TEMPO 2407/2410 BKN015 FM241000 VRB03KT P6SM BKN015 FM241700 29009KT P6SM SCT018 FM242100 29013G21KT P6SM SCT250 FM250300 VRB05KT P6SM BKN015
View NOTAMs / SUP AIP / TFR affecting this airport [VIEW]
Communications frequencies: [VIEW]

Runways:

Airport contact information

Address: San Diego United States

Satellite view of 20CN